Time;durP1;ratioP1;P1;durP2;ratioP2;P2;SDS_P1;SDS_P2;PMS_P1;PMS_P2;Temp;Humidity;BMP_temperature;BMP_pressure;BME280_temperature;BME280_humidity;BME280_pressure;Samples;Min_cycle;Max_cycle;Signal;HPM_P1;HPM_P2
2022/07/30 00:00:51;;;;;;;3.63;3.43;;;22.10;50.60;;;;;;20797;6766;118198;-85
2022/07/30 00:03:28;;;;;;;3.92;3.72;;;22.40;50.00;;;;;;20646;6747;275882;-86
2022/07/30 00:06:03;;;;;;;3.73;3.53;;;22.30;50.00;;;;;;20740;6762;117521;-84
2022/07/30 00:08:39;;;;;;;5.07;3.93;;;22.40;50.10;;;;;;20878;6737;118213;-84
2022/07/30 00:11:14;;;;;;;4.43;3.97;;;22.20;50.40;;;;;;20891;6732;116915;-84
2022/07/30 00:13:52;;;;;;;4.33;4.03;;;22.30;50.20;;;;;;20632;6750;311124;-84
2022/07/30 00:16:27;;;;;;;5.13;3.97;;;22.30;50.20;;;;;;20686;6775;117728;-84
2022/07/30 00:19:05;;;;;;;4.50;4.10;;;22.50;50.10;;;;;;20594;6760;309084;-84
2022/07/30 00:21:41;;;;;;;4.40;4.05;;;22.50;50.00;;;;;;20715;6726;326529;-83
2022/07/30 00:24:17;;;;;;;4.23;4.03;;;22.80;49.30;;;;;;20859;6746;116863;-84
2022/07/30 00:26:53;;;;;;;4.17;3.77;;;22.70;49.90;;;;;;20706;6745;118429;-84
2022/07/30 00:29:29;;;;;;;3.70;3.50;;;22.30;50.30;;;;;;20826;6759;120668;-84
2022/07/30 00:32:05;;;;;;;3.50;3.40;;;22.10;50.80;;;;;;20836;6754;118569;-84
2022/07/30 00:34:41;;;;;;;4.03;3.73;;;22.00;51.20;;;;;;20619;6754;277424;-84
2022/07/30 00:37:17;;;;;;;4.30;3.90;;;22.20;50.50;;;;;;20434;6754;338291;-85
2022/07/30 00:39:54;;;;;;;5.07;3.83;;;22.60;49.70;;;;;;20841;6754;117069;-84
2022/07/30 00:42:40;;;;;;;4.47;4.18;;;22.50;50.10;;;;;;20653;6761;342881;-84
2022/07/30 00:45:16;;;;;;;4.30;3.90;;;22.40;50.80;;;;;;20816;6752;117587;-84
2022/07/30 00:47:51;;;;;;;4.40;4.10;;;22.40;50.70;;;;;;20820;6776;117006;-84
2022/07/30 00:50:27;;;;;;;4.50;4.10;;;22.10;51.30;;;;;;20743;6785;117770;-84
2022/07/30 00:53:02;;;;;;;4.43;4.20;;;21.90;51.80;;;;;;20849;6746;116965;-84
2022/07/30 00:55:38;;;;;;;4.47;4.03;;;21.70;52.20;;;;;;20789;6759;117999;-84
2022/07/30 00:58:15;;;;;;;6.43;4.60;;;21.50;52.40;;;;;;20817;6752;117079;-84
2022/07/30 01:00:51;;;;;;;4.40;4.10;;;21.80;51.70;;;;;;20604;6761;308271;-84
2022/07/30 01:03:27;;;;;;;4.70;4.40;;;21.80;52.10;;;;;;20633;6751;310139;-84
2022/07/30 01:06:02;;;;;;;4.70;4.30;;;22.20;51.00;;;;;;20481;6776;284939;-84
2022/07/30 01:08:38;;;;;;;4.60;4.30;;;22.50;50.40;;;;;;20643;6756;276889;-84
2022/07/30 01:11:13;;;;;;;4.77;4.37;;;22.70;49.70;;;;;;20838;6745;117102;-84
2022/07/30 01:13:49;;;;;;;3.83;3.53;;;22.50;50.10;;;;;;20848;6764;120866;-84
2022/07/30 01:16:25;;;;;;;4.20;3.90;;;22.20;50.90;;;;;;20670;6776;118297;-84
2022/07/30 01:21:59;;;;;;;4.68;4.30;;;22.00;51.00;;;;;;20559;6774;306607;-84
2022/07/30 01:24:41;;;;;;;4.40;4.20;;;22.40;50.20;;;;;;20615;6753;309491;-84
2022/07/30 01:27:17;;;;;;;4.67;4.27;;;22.60;49.90;;;;;;20593;6821;123825;-84
2022/07/30 01:29:53;;;;;;;4.60;4.30;;;22.30;50.10;;;;;;20623;6747;307152;-84
2022/07/30 01:32:29;;;;;;;4.70;4.23;;;22.30;50.10;;;;;;20808;6760;118151;-84
2022/07/30 01:35:06;;;;;;;4.50;4.20;;;22.10;50.60;;;;;;20766;6760;117493;-85
2022/07/30 01:37:41;;;;;;;4.97;4.10;;;21.80;51.10;;;;;;20858;6738;118219;-84
2022/07/30 01:40:17;;;;;;;4.00;3.80;;;21.40;52.00;;;;;;20817;6766;117700;-86
2022/07/30 01:42:53;;;;;;;4.30;4.10;;;21.30;51.90;;;;;;20590;6759;306730;-84
2022/07/30 01:45:29;;;;;;;4.20;4.00;;;21.70;51.30;;;;;;20788;6755;117250;-84
2022/07/30 01:48:04;;;;;;;4.73;4.00;;;21.70;51.30;;;;;;20820;6759;118230;-84
2022/07/30 01:50:40;;;;;;;3.80;3.60;;;21.50;51.90;;;;;;20813;6755;118301;-84
2022/07/30 01:53:15;;;;;;;4.30;3.90;;;21.40;51.90;;;;;;20799;6756;117384;-84
2022/07/30 01:55:51;;;;;;;3.70;3.50;;;21.20;51.90;;;;;;20522;6756;280915;-84
2022/07/30 01:58:27;;;;;;;4.30;4.00;;;22.00;49.80;;;;;;20660;6741;305527;-84
2022/07/30 02:01:03;;;;;;;4.03;3.77;;;21.90;49.30;;;;;;20796;6759;127326;-84
2022/07/30 02:03:38;;;;;;;3.80;3.60;;;21.90;49.70;;;;;;20816;6756;116991;-84
2022/07/30 02:06:21;;;;;;;4.10;3.80;;;21.70;50.30;;;;;;20476;6756;280473;-84
2022/07/30 02:09:00;;;;;;;4.47;4.07;;;21.90;49.80;;;;;;20568;6760;307095;-84
2022/07/30 02:14:38;;;;;;;4.20;3.90;;;22.50;48.70;;;;;;20607;6759;277570;-84
2022/07/30 02:17:18;;;;;;;4.30;4.00;;;22.50;48.70;;;;;;19955;6883;119175;-84
2022/07/30 02:19:54;;;;;;;4.43;4.03;;;22.20;49.40;;;;;;20815;6756;118226;-84
2022/07/30 02:22:29;;;;;;;4.40;3.93;;;21.80;50.20;;;;;;20762;6756;117009;-86
2022/07/30 02:25:05;;;;;;;4.10;3.90;;;21.40;50.70;;;;;;20527;6756;307083;-84
2022/07/30 02:27:41;;;;;;;4.10;3.90;;;21.60;50.30;;;;;;20855;6741;117156;-84
2022/07/30 02:30:16;;;;;;;4.40;4.10;;;21.60;50.60;;;;;;20653;6741;284988;-84
2022/07/30 02:32:52;;;;;;;4.40;4.00;;;21.80;50.70;;;;;;20639;6741;297903;-84
2022/07/30 02:35:27;;;;;;;3.90;3.70;;;22.00;49.90;;;;;;20817;6741;117291;-84
2022/07/30 02:38:04;;;;;;;4.10;3.90;;;21.90;50.10;;;;;;20860;6740;118636;-84
2022/07/30 02:40:39;;;;;;;4.30;4.00;;;21.80;49.90;;;;;;20648;6741;305957;-84
2022/07/30 02:43:15;;;;;;;4.30;4.10;;;21.80;49.90;;;;;;20839;6741;118180;-84
2022/07/30 02:45:50;;;;;;;3.97;3.57;;;21.70;50.30;;;;;;20789;6741;117901;-84
2022/07/30 02:48:26;;;;;;;5.00;4.00;;;21.40;50.60;;;;;;20869;6741;118248;-85
2022/07/30 02:51:01;;;;;;;3.93;3.70;;;21.20;51.10;;;;;;20847;6741;118640;-84
2022/07/30 02:53:37;;;;;;;4.43;4.12;;;21.00;51.50;;;;;;20626;6756;280499;-87
2022/07/30 02:56:14;;;;;;;4.67;4.37;;;21.30;51.20;;;;;;20554;6756;309091;-85
2022/07/30 02:58:48;;;;;;;4.47;4.17;;;21.70;50.60;;;;;;20858;6746;119555;-84
2022/07/30 03:01:24;;;;;;;4.60;4.30;;;21.60;50.90;;;;;;20594;6757;277511;-85
2022/07/30 03:03:59;;;;;;;4.85;4.45;;;21.70;49.80;;;;;;20590;6766;333312;-84
2022/07/30 03:06:35;;;;;;;4.70;4.40;;;22.00;49.60;;;;;;20492;6759;297055;-84
2022/07/30 03:09:10;;;;;;;4.60;4.22;;;22.20;49.10;;;;;;20623;6759;307720;-84
2022/07/30 03:11:49;;;;;;;5.50;4.13;;;22.30;48.50;;;;;;20893;6741;118085;-84
2022/07/30 03:14:22;;;;;;;4.50;4.10;;;22.00;49.20;;;;;;20583;6770;297877;-84
2022/07/30 03:16:57;;;;;;;4.82;4.55;;;22.00;49.10;;;;;;20393;6764;309534;-85
2022/07/30 03:19:33;;;;;;;4.20;4.00;;;22.10;48.70;;;;;;20805;6765;118900;-84
2022/07/30 03:22:08;;;;;;;5.53;4.93;;;21.90;49.20;;;;;;20598;6768;307580;-84
2022/07/30 03:24:46;;;;;;;5.10;4.70;;;22.00;49.60;;;;;;20601;6764;277583;-84
2022/07/30 03:27:22;;;;;;;4.60;4.37;;;22.00;48.90;;;;;;20613;6821;117524;-84
2022/07/30 03:30:01;;;;;;;5.10;4.70;;;21.80;49.50;;;;;;20639;6750;309002;-83
2022/07/30 03:32:35;;;;;;;5.43;4.97;;;21.80;49.50;;;;;;20631;6764;276142;-83
2022/07/30 03:35:10;;;;;;;4.60;4.30;;;21.90;49.30;;;;;;20855;6767;117231;-83
2022/07/30 03:37:45;;;;;;;5.17;4.67;;;21.70;49.80;;;;;;20681;6767;308482;-83
2022/07/30 03:40:21;;;;;;;4.90;4.70;;;21.70;49.80;;;;;;20889;6758;117756;-84
2022/07/30 03:43:00;;;;;;;4.90;4.60;;;21.50;50.20;;;;;;20665;6796;278315;-93
2022/07/30 03:45:32;;;;;;;5.00;4.50;;;21.60;50.10;;;;;;20569;6764;338837;-83
2022/07/30 03:48:08;;;;;;;4.97;4.67;;;21.80;49.90;;;;;;20686;6752;306603;-83
2022/07/30 03:50:43;;;;;;;4.60;4.20;;;22.00;49.20;;;;;;20870;6764;68825;-84
2022/07/30 03:53:19;;;;;;;4.63;4.33;;;21.70;49.70;;;;;;20931;6749;114134;-84
2022/07/30 03:55:55;;;;;;;4.78;4.40;;;21.30;50.50;;;;;;20600;6757;282319;-84
2022/07/30 03:58:30;;;;;;;4.90;4.60;;;21.30;50.10;;;;;;20834;6772;117291;-84
2022/07/30 04:01:06;;;;;;;5.13;4.50;;;21.20;50.50;;;;;;20852;6771;121300;-84
2022/07/30 04:03:41;;;;;;;4.77;4.57;;;20.90;51.10;;;;;;20897;6757;70990;-84
2022/07/30 04:06:17;;;;;;;5.53;5.13;;;20.60;51.60;;;;;;20727;6772;120738;-84
2022/07/30 04:08:52;;;;;;;5.30;5.00;;;20.40;52.00;;;;;;20608;6757;279057;-84
2022/07/30 04:11:28;;;;;;;5.30;4.90;;;20.70;52.00;;;;;;20516;6757;306734;-85
2022/07/30 04:14:03;;;;;;;4.83;4.57;;;21.00;51.10;;;;;;20775;6772;117698;-85
2022/07/30 04:16:59;;;;;;;4.67;4.37;;;20.90;51.30;;;;;;20703;6759;118733;-86
2022/07/30 04:19:34;;;;;;;4.90;4.60;;;20.60;51.90;;;;;;20776;6774;117358;-85
2022/07/30 04:22:11;;;;;;;5.60;5.20;;;20.30;52.50;;;;;;20657;6746;310936;-86
2022/07/30 04:24:47;;;;;;;5.73;5.13;;;20.60;52.40;;;;;;20785;6772;118199;-85
2022/07/30 04:27:24;;;;;;;6.77;4.90;;;20.60;52.40;;;;;;20686;6812;116838;-86
2022/07/30 04:29:58;;;;;;;5.07;4.77;;;20.40;52.80;;;;;;20829;6756;117148;-84
2022/07/30 04:32:34;;;;;;;5.97;5.57;;;20.20;53.30;;;;;;20593;6770;279806;-85
2022/07/30 04:35:10;;;;;;;5.78;5.37;;;20.50;52.90;;;;;;20536;6765;308076;-85
2022/07/30 04:37:46;;;;;;;6.97;5.00;;;20.90;52.20;;;;;;20831;6750;117045;-85
2022/07/30 04:40:22;;;;;;;5.47;5.07;;;21.00;51.70;;;;;;20638;6745;305644;-85
2022/07/30 04:42:58;;;;;;;5.93;5.43;;;21.00;51.70;;;;;;20604;6745;339678;-84
2022/07/30 04:45:34;;;;;;;5.60;5.33;;;21.30;51.20;;;;;;20571;6765;279095;-85
2022/07/30 04:48:09;;;;;;;5.90;5.60;;;21.50;50.70;;;;;;20602;6765;298169;-85
2022/07/30 04:50:45;;;;;;;5.27;4.87;;;21.70;50.60;;;;;;20817;6765;118699;-84
2022/07/30 04:53:20;;;;;;;5.07;4.67;;;21.40;50.90;;;;;;20795;6765;118679;-85
2022/07/30 04:55:57;;;;;;;5.60;5.17;;;21.00;51.60;;;;;;20790;6750;117032;-86
2022/07/30 04:58:32;;;;;;;5.47;5.07;;;20.70;52.20;;;;;;20874;6739;120780;-86
2022/07/30 05:01:08;;;;;;;6.20;5.27;;;20.60;52.60;;;;;;20870;6738;118188;-86
2022/07/30 05:03:43;;;;;;;6.22;5.68;;;20.40;52.90;;;;;;20674;6739;276600;-86
2022/07/30 05:06:20;;;;;;;5.30;4.90;;;20.80;52.30;;;;;;20780;6739;118114;-93
2022/07/30 05:08:55;;;;;;;5.47;5.17;;;20.80;52.30;;;;;;20873;6737;128049;-86
2022/07/30 05:11:31;;;;;;;6.00;5.03;;;20.70;52.60;;;;;;20903;6737;118179;-86
2022/07/30 05:14:06;;;;;;;4.97;4.77;;;20.50;52.80;;;;;;20896;6737;117012;-89
2022/07/30 05:16:43;;;;;;;5.47;5.03;;;20.40;53.10;;;;;;20738;6747;116778;-87
2022/07/30 05:19:19;;;;;;;5.70;5.23;;;20.40;53.30;;;;;;20840;6743;118178;-88
2022/07/30 05:21:54;;;;;;;6.23;5.83;;;20.30;53.30;;;;;;20623;6746;276447;-87
2022/07/30 05:24:30;;;;;;;5.73;5.30;;;20.60;52.60;;;;;;20862;6747;118043;-87
2022/07/30 05:27:05;;;;;;;6.70;5.47;;;20.70;52.50;;;;;;20491;6732;296038;-86
2022/07/30 05:29:41;;;;;;;5.60;5.20;;;21.00;51.80;;;;;;20661;6738;339297;-89
2022/07/30 05:32:16;;;;;;;5.77;5.37;;;21.40;50.90;;;;;;20880;6738;120743;-86
2022/07/30 05:34:52;;;;;;;5.73;5.23;;;21.30;51.20;;;;;;20842;6743;147964;-86
2022/07/30 05:37:31;;;;;;;5.90;5.50;;;21.20;51.30;;;;;;20607;6761;277856;-86
2022/07/30 05:40:04;;;;;;;5.57;5.20;;;21.20;51.20;;;;;;20846;6742;116883;-87
2022/07/30 05:42:41;;;;;;;5.57;5.00;;;21.20;51.50;;;;;;20830;6752;117900;-91
2022/07/30 05:45:16;;;;;;;5.67;5.17;;;21.00;51.90;;;;;;20784;6753;117590;-87
2022/07/30 05:47:52;;;;;;;5.43;4.93;;;20.90;52.30;;;;;;20956;6713;117373;-87
2022/07/30 05:50:28;;;;;;;5.90;4.90;;;20.80;52.60;;;;;;20819;6758;117246;-86
2022/07/30 05:53:03;;;;;;;5.33;4.77;;;20.70;52.70;;;;;;20852;6760;119258;-86
2022/07/30 05:55:39;;;;;;;5.37;4.97;;;20.70;52.90;;;;;;20841;6757;113780;-85
2022/07/30 05:58:14;;;;;;;5.63;5.13;;;20.60;53.00;;;;;;20909;6723;116043;-85
2022/07/30 06:00:50;;;;;;;5.60;5.10;;;20.60;53.30;;;;;;20868;6736;117505;-85
2022/07/30 06:03:26;;;;;;;5.70;5.20;;;20.60;53.30;;;;;;20706;6736;280725;-86
2022/07/30 06:06:03;;;;;;;5.20;4.80;;;21.10;52.80;;;;;;20847;6736;117156;-86
2022/07/30 06:08:38;;;;;;;5.07;4.67;;;21.20;52.70;;;;;;20560;6736;116955;-84
2022/07/30 06:11:14;;;;;;;4.37;3.97;;;21.20;53.00;;;;;;20963;6730;119908;-84
2022/07/30 06:13:51;;;;;;;4.80;4.50;;;21.20;53.30;;;;;;20980;6730;117900;-84
2022/07/30 06:16:36;;;;;;;4.90;4.50;;;21.30;53.10;;;;;;20502;6745;118370;-85
2022/07/30 06:19:13;;;;;;;;;;;;;;;;;;;;;
2022/07/30 06:21:38;;;;;;;4.80;4.40;;;21.60;52.50;;;;;;20677;6730;306992;-88
2022/07/30 06:24:14;;;;;;;4.60;4.30;;;22.10;50.70;;;;;;20906;6730;66522;-85
2022/07/30 06:26:49;;;;;;;4.50;4.10;;;22.40;50.70;;;;;;20832;6722;116688;-84
2022/07/30 06:29:25;;;;;;;5.00;4.60;;;22.40;50.70;;;;;;20643;6786;306091;-85
2022/07/30 06:32:01;;;;;;;4.20;3.87;;;22.90;49.80;;;;;;20907;6779;117080;-84
2022/07/30 06:34:36;;;;;;;4.70;4.30;;;23.10;49.80;;;;;;20700;6723;280406;-83
2022/07/30 06:37:12;;;;;;;4.57;4.17;;;23.50;48.50;;;;;;20749;6723;117722;-85
2022/07/30 06:39:48;;;;;;;4.63;4.33;;;24.50;47.50;;;;;;20708;6723;306728;-83
2022/07/30 06:42:24;;;;;;;4.47;4.27;;;24.50;47.40;;;;;;20690;6779;277956;-84
2022/07/30 06:45:00;;;;;;;4.10;3.77;;;25.50;45.80;;;;;;20826;6749;117025;-84
2022/07/30 06:47:36;;;;;;;4.70;4.30;;;26.00;46.30;;;;;;20674;6738;278644;-83
2022/07/30 06:50:12;;;;;;;4.10;3.80;;;26.60;43.70;;;;;;20880;6740;116838;-84
2022/07/30 06:52:47;;;;;;;4.53;4.10;;;27.00;44.20;;;;;;20696;6740;281984;-84
2022/07/30 06:55:24;;;;;;;4.35;4.03;;;27.50;42.00;;;;;;20577;6753;310606;-84
2022/07/30 06:57:58;;;;;;;4.73;4.13;;;28.10;41.20;;;;;;20762;6775;121635;-84
2022/07/30 07:00:34;;;;;;;4.47;3.60;;;28.20;41.60;;;;;;20850;6748;117047;-84
2022/07/30 07:03:09;;;;;;;4.47;3.97;;;28.10;42.30;;;;;;20653;6782;121114;-84
2022/07/30 07:05:45;;;;;;;4.27;3.93;;;28.00;42.40;;;;;;20686;6787;117231;-84
2022/07/30 07:08:21;;;;;;;4.67;4.30;;;28.00;42.30;;;;;;20633;6754;276509;-84
2022/07/30 07:10:56;;;;;;;3.90;3.70;;;28.40;39.80;;;;;;20614;6751;301473;-84
2022/07/30 07:13:32;;;;;;;4.20;3.90;;;29.10;38.40;;;;;;20661;6738;334211;-84
2022/07/30 07:16:08;;;;;;;4.40;4.00;;;29.00;38.30;;;;;;20583;6739;287049;-85
2022/07/30 07:18:44;;;;;;;4.60;4.30;;;29.20;37.80;;;;;;20626;6763;337153;-86
2022/07/30 07:21:19;;;;;;;6.20;4.00;;;29.30;37.10;;;;;;20657;6748;277266;-86
2022/07/30 07:23:55;;;;;;;4.70;4.30;;;29.40;37.30;;;;;;20677;6753;311457;-82
2022/07/30 07:26:30;;;;;;;4.03;3.83;;;29.40;37.60;;;;;;20794;6746;118504;-83
2022/07/30 07:29:07;;;;;;;4.60;4.20;;;29.20;38.50;;;;;;20863;6755;120847;-86
2022/07/30 07:31:43;;;;;;;4.80;4.50;;;28.80;39.40;;;;;;20884;6756;118207;-86
2022/07/30 07:34:18;;;;;;;4.80;4.40;;;28.50;39.50;;;;;;20871;6756;117033;-85
2022/07/30 07:36:54;;;;;;;5.43;4.97;;;28.10;40.20;;;;;;20489;6756;309722;-85
2022/07/30 07:39:30;;;;;;;5.13;4.70;;;28.70;38.70;;;;;;20744;6723;276721;-86
2022/07/30 07:42:06;;;;;;;5.50;5.00;;;28.70;38.70;;;;;;20679;6736;277640;-86
2022/07/30 07:44:41;;;;;;;5.30;4.80;;;28.90;37.70;;;;;;20601;6747;311448;-86
2022/07/30 07:47:20;;;;;;;4.57;4.25;;;29.20;37.30;;;;;;20464;6750;340517;-85
2022/07/30 07:49:56;;;;;;;5.00;4.60;;;29.40;37.50;;;;;;20661;6744;307003;-86
2022/07/30 07:52:32;;;;;;;4.93;4.47;;;29.60;36.90;;;;;;20844;6732;119943;-86
2022/07/30 07:55:09;;;;;;;3.90;3.60;;;29.40;37.70;;;;;;20881;6731;116939;-84
2022/07/30 07:57:44;;;;;;;4.43;4.03;;;29.20;38.50;;;;;;20704;6722;337124;-85
2022/07/30 08:00:20;;;;;;;4.10;3.90;;;29.30;37.10;;;;;;20888;6737;117062;-85
2022/07/30 08:02:56;;;;;;;4.37;4.07;;;29.30;37.30;;;;;;20928;6722;117190;-84
2022/07/30 08:05:31;;;;;;;4.70;4.30;;;29.10;37.40;;;;;;20892;6725;117563;-85
2022/07/30 08:08:07;;;;;;;5.97;4.30;;;28.90;37.40;;;;;;20931;6718;118948;-85
2022/07/30 08:10:43;;;;;;;4.33;4.07;;;28.80;38.00;;;;;;20900;6748;116940;-84
2022/07/30 08:13:22;;;;;;;4.70;4.30;;;28.70;37.40;;;;;;20678;6748;277257;-85
2022/07/30 08:15:55;;;;;;;4.20;3.80;;;29.50;34.10;;;;;;20690;6722;307467;-85
2022/07/30 08:18:31;;;;;;;4.80;3.73;;;29.50;33.40;;;;;;20760;6707;275605;-84
2022/07/30 08:21:07;;;;;;;3.73;3.47;;;29.80;32.60;;;;;;20950;6701;143922;-84
2022/07/30 08:23:42;;;;;;;4.50;4.13;;;29.70;33.90;;;;;;20854;6748;117045;-84
2022/07/30 08:26:17;;;;;;;4.43;4.13;;;29.50;34.50;;;;;;20588;6728;303212;-85
2022/07/30 08:28:54;;;;;;;4.47;4.03;;;30.00;33.10;;;;;;20662;6732;306574;-84
2022/07/30 08:31:29;;;;;;;3.90;3.60;;;30.00;33.10;;;;;;20908;6741;117284;-84
2022/07/30 08:34:05;;;;;;;6.13;3.53;;;29.90;34.00;;;;;;20849;6751;117936;-85
2022/07/30 08:36:43;;;;;;;3.77;3.57;;;29.70;34.90;;;;;;20822;6721;117770;-85
2022/07/30 08:39:17;;;;;;;4.40;3.93;;;29.70;32.70;;;;;;20772;6701;305835;-85
2022/07/30 08:41:54;;;;;;;3.97;3.60;;;29.80;32.80;;;;;;20999;6701;117800;-84
2022/07/30 08:44:29;;;;;;;5.43;4.30;;;29.80;33.90;;;;;;20792;6701;304915;-84
2022/07/30 08:47:05;;;;;;;6.18;3.65;;;30.10;32.00;;;;;;20611;6701;306952;-85
2022/07/30 08:49:51;;;;;;;;;;;;;;;;;;;;;
2022/07/30 08:52:17;;;;;;;3.77;3.13;;;30.00;32.50;;;;;;20990;6757;116753;-84
2022/07/30 08:54:53;;;;;;;15.93;4.57;;;29.40;33.70;;;;;;20991;6701;117005;-86
2022/07/30 08:57:29;;;;;;;8.93;3.60;;;29.40;33.60;;;;;;20755;6779;117475;-85
2022/07/30 09:00:05;;;;;;;3.70;3.40;;;29.40;33.90;;;;;;20934;6727;117258;-85
2022/07/30 09:02:40;;;;;;;3.70;3.40;;;29.20;34.10;;;;;;20740;6716;335420;-87
2022/07/30 09:05:16;;;;;;;3.70;2.95;;;29.40;32.20;;;;;;20737;6707;309344;-84
2022/07/30 09:07:57;;;;;;;3.30;3.00;;;29.90;31.40;;;;;;20989;6707;120857;-85
2022/07/30 09:10:31;;;;;;;5.03;2.87;;;30.00;32.60;;;;;;20937;6718;120387;-85
2022/07/30 09:13:27;;;;;;;4.05;2.80;;;29.90;32.80;;;;;;20758;6707;275620;-84
2022/07/30 09:16:02;;;;;;;2.90;2.60;;;30.20;33.10;;;;;;20871;6709;117291;-89
2022/07/30 09:18:38;;;;;;;3.00;2.77;;;30.30;33.00;;;;;;20631;6805;279596;-93
2022/07/30 09:21:13;;;;;;;2.73;2.50;;;30.60;30.90;;;;;;20758;6731;117941;-89
2022/07/30 09:24:02;;;;;;;4.70;2.50;;;30.70;31.00;;;;;;20845;6732;117614;-88
2022/07/30 09:27:01;;;;;;;2.47;2.17;;;30.60;31.30;;;;;;20648;6737;308036;-88
2022/07/30 09:29:37;;;;;;;2.10;2.00;;;30.80;29.60;;;;;;20878;6737;120562;-91
2022/07/30 09:32:12;;;;;;;2.23;2.03;;;30.70;30.70;;;;;;20934;6727;116751;-88
2022/07/30 09:34:48;;;;;;;4.10;2.20;;;30.60;31.30;;;;;;20929;6727;116536;-86
2022/07/30 09:37:23;;;;;;;2.90;2.50;;;30.60;31.30;;;;;;20531;6778;307512;-89
2022/07/30 09:40:00;;;;;;;2.30;2.20;;;31.00;29.20;;;;;;20967;6715;116355;-86
2022/07/30 09:42:35;;;;;;;2.37;2.17;;;31.20;29.60;;;;;;20898;6732;117899;-87
2022/07/30 09:45:13;;;;;;;2.17;2.03;;;31.00;30.30;;;;;;20912;6709;118211;-84
2022/07/30 09:47:50;;;;;;;3.33;2.53;;;31.20;29.20;;;;;;20777;6723;276184;-84
2022/07/30 09:50:26;;;;;;;2.33;2.23;;;31.20;29.20;;;;;;20976;6716;117566;-83
2022/07/30 09:53:04;;;;;;;2.50;2.30;;;31.30;29.90;;;;;;20952;6716;120408;-85
2022/07/30 09:55:40;;;;;;;2.73;2.20;;;31.20;30.00;;;;;;20737;6701;283723;-84
2022/07/30 09:58:16;;;;;;;2.43;2.20;;;31.10;29.10;;;;;;21014;6701;116965;-82
2022/07/30 10:00:58;;;;;;;2.80;2.47;;;31.10;29.10;;;;;;20773;6701;334559;-89
2022/07/30 10:03:33;;;;;;;2.63;2.30;;;31.20;28.60;;;;;;20881;6736;117317;-87
2022/07/30 10:06:09;;;;;;;2.60;2.20;;;31.20;29.60;;;;;;20481;6716;313013;-87
2022/07/30 10:08:49;;;;;;;3.13;2.20;;;31.40;28.80;;;;;;20899;6734;117368;-88
2022/07/30 10:11:24;;;;;;;2.30;2.10;;;31.50;29.40;;;;;;20749;6706;336518;-87
2022/07/30 10:13:59;;;;;;;1.97;1.80;;;31.70;28.60;;;;;;20961;6722;116860;-87
2022/07/30 10:16:34;;;;;;;4.00;2.07;;;31.70;29.00;;;;;;20856;6707;119468;-88
2022/07/30 10:19:10;;;;;;;3.30;2.13;;;31.70;29.10;;;;;;20855;6774;118165;-91
2022/07/30 10:21:45;;;;;;;2.63;2.13;;;31.60;29.40;;;;;;20947;6718;118095;-88
2022/07/30 10:24:21;;;;;;;2.03;1.80;;;31.40;28.90;;;;;;20867;6714;116917;-87
2022/07/30 10:26:57;;;;;;;2.87;2.20;;;31.40;29.20;;;;;;20512;6712;279084;-87
2022/07/30 10:29:33;;;;;;;2.47;2.00;;;31.70;27.60;;;;;;20754;6713;309591;-85
2022/07/30 10:32:08;;;;;;;1.80;1.70;;;32.10;27.70;;;;;;20965;6715;119494;-87
2022/07/30 10:34:45;;;;;;;2.43;2.03;;;32.20;28.50;;;;;;20754;6715;306105;-89
2022/07/30 10:37:21;;;;;;;2.90;2.00;;;32.30;27.70;;;;;;20553;6718;278038;-87
2022/07/30 10:40:02;;;;;;;2.10;2.00;;;32.40;27.10;;;;;;20727;6722;297251;-88
2022/07/30 10:42:58;;;;;;;2.53;2.00;;;32.30;27.50;;;;;;20925;6714;117055;-86
2022/07/30 10:45:37;;;;;;;2.23;2.03;;;32.10;27.80;;;;;;20927;6732;117390;-86
2022/07/30 10:48:12;;;;;;;2.37;2.10;;;31.70;28.40;;;;;;20951;6737;116958;-87
2022/07/30 10:50:48;;;;;;;2.87;1.90;;;31.40;29.00;;;;;;20623;6766;307660;-89
2022/07/30 10:53:44;;;;;;;2.30;2.10;;;31.60;28.30;;;;;;20794;6766;116210;-87
2022/07/30 10:56:22;;;;;;;2.73;2.00;;;31.70;28.60;;;;;;20708;6819;117493;-88
2022/07/30 10:59:05;;;;;;;2.20;2.00;;;31.80;28.50;;;;;;20692;6733;306962;-84
2022/07/30 11:01:47;;;;;;;2.83;2.10;;;31.80;28.10;;;;;;20701;6729;302374;-88
2022/07/30 11:04:25;;;;;;;3.77;2.43;;;32.20;27.50;;;;;;20957;6714;118449;-84
2022/07/30 11:07:26;;;;;;;2.90;1.80;;;31.80;28.40;;;;;;20707;6732;119861;-87
2022/07/30 11:09:59;;;;;;;3.10;1.85;;;31.80;28.40;;;;;;20737;6718;305559;-87
2022/07/30 11:12:44;;;;;;;2.07;1.93;;;31.80;28.00;;;;;;20948;6718;117883;-89
2022/07/30 11:15:20;;;;;;;3.83;1.90;;;31.80;28.70;;;;;;20874;6718;123446;-86
2022/07/30 11:18:04;;;;;;;1.90;1.80;;;31.50;29.10;;;;;;20951;6718;117288;-86
2022/07/30 11:20:42;;;;;;;2.15;1.85;;;31.30;29.30;;;;;;20725;6718;310001;-87
2022/07/30 11:23:20;;;;;;;4.23;2.30;;;31.40;27.50;;;;;;20895;6718;117092;-86
2022/07/30 11:26:05;;;;;;;2.87;2.00;;;31.30;27.90;;;;;;20634;6718;310852;-88
2022/07/30 11:28:41;;;;;;;2.53;1.90;;;31.30;28.10;;;;;;20802;6807;116993;-85
2022/07/30 11:31:23;;;;;;;5.23;2.00;;;31.20;29.10;;;;;;20891;6733;116934;-88
2022/07/30 11:34:18;;;;;;;1.95;1.85;;;30.80;28.80;;;;;;20658;6751;311550;-85
2022/07/30 11:37:04;;;;;;;3.45;2.00;;;30.90;28.40;;;;;;20506;6748;300399;-85
2022/07/30 11:39:52;;;;;;;2.40;2.20;;;31.30;27.90;;;;;;20923;6718;121946;-86
2022/07/30 11:42:28;;;;;;;1.83;1.73;;;31.30;28.50;;;;;;20750;6718;302750;-86
2022/07/30 11:45:14;;;;;;;3.20;1.80;;;32.00;27.90;;;;;;20710;6718;278369;-84
2022/07/30 11:47:50;;;;;;;2.35;1.60;;;32.40;26.80;;;;;;20752;6718;336123;-85
2022/07/30 11:50:29;;;;;;;1.90;1.60;;;32.40;26.20;;;;;;20739;6718;306509;-86
2022/07/30 11:53:05;;;;;;;2.10;2.00;;;32.50;26.80;;;;;;20939;6718;118029;-86
2022/07/30 11:55:41;;;;;;;2.10;1.90;;;32.50;26.80;;;;;;20643;6718;308578;-84
2022/07/30 11:58:23;;;;;;;1.70;1.60;;;32.40;26.70;;;;;;20941;6718;117309;-85
2022/07/30 12:01:02;;;;;;;1.60;1.50;;;32.40;27.20;;;;;;20714;6718;291716;-85
2022/07/30 12:03:40;;;;;;;1.83;1.73;;;32.40;27.30;;;;;;20730;6718;294417;-85
2022/07/30 12:06:19;;;;;;;1.77;1.67;;;32.70;27.40;;;;;;20817;6718;116793;-85
2022/07/30 12:08:54;;;;;;;1.63;1.60;;;32.80;27.50;;;;;;20944;6718;116822;-90
2022/07/30 12:11:33;;;;;;;1.95;1.77;;;32.70;27.10;;;;;;20745;6717;305480;-89
2022/07/30 12:14:09;;;;;;;2.10;1.70;;;32.70;27.10;;;;;;20946;6717;116790;-88
2022/07/30 12:16:47;;;;;;;2.00;1.80;;;32.50;27.30;;;;;;20558;6717;309073;-87
2022/07/30 12:19:23;;;;;;;2.67;1.77;;;32.50;26.50;;;;;;20717;6717;276937;-92
2022/07/30 12:22:00;;;;;;;2.17;1.50;;;32.60;26.80;;;;;;20946;6718;118171;-86
2022/07/30 12:24:36;;;;;;;2.87;1.80;;;32.30;27.50;;;;;;20938;6718;117990;-87
2022/07/30 12:27:11;;;;;;;1.63;1.53;;;32.00;27.90;;;;;;20697;6718;130375;-85
2022/07/30 12:29:48;;;;;;;3.03;1.87;;;31.80;27.90;;;;;;20942;6718;117421;-89
2022/07/30 12:32:23;;;;;;;1.90;1.70;;;31.50;28.10;;;;;;20904;6777;119662;-89
2022/07/30 12:35:01;;;;;;;2.87;1.80;;;31.20;28.20;;;;;;20853;6727;118220;-88
2022/07/30 12:37:36;;;;;;;2.20;1.70;;;31.10;28.20;;;;;;20630;6748;306398;-90
2022/07/30 12:40:12;;;;;;;1.87;1.50;;;31.40;26.90;;;;;;20684;6733;276498;-90
2022/07/30 12:42:54;;;;;;;1.70;1.60;;;31.60;26.30;;;;;;20853;6739;117403;-89
2022/07/30 12:45:30;;;;;;;1.83;1.70;;;31.50;27.10;;;;;;20836;6733;117347;-91
2022/07/30 12:48:06;;;;;;;1.73;1.63;;;31.10;27.50;;;;;;20890;6733;121754;-88
2022/07/30 12:50:42;;;;;;;1.57;1.47;;;30.90;27.80;;;;;;20675;6733;306617;-91
2022/07/30 12:53:20;;;;;;;1.70;1.60;;;31.00;27.80;;;;;;20912;6722;120693;-92
2022/07/30 12:55:54;;;;;;;2.83;1.60;;;31.00;27.80;;;;;;20620;6720;311833;-86
2022/07/30 12:58:31;;;;;;;1.75;1.50;;;31.20;28.20;;;;;;20640;6718;334868;-91
2022/07/30 13:01:06;;;;;;;1.60;1.50;;;31.60;27.60;;;;;;20920;6721;118551;-88
2022/07/30 13:03:44;;;;;;;1.77;1.40;;;31.50;27.40;;;;;;20948;6718;117041;-87
2022/07/30 13:06:18;;;;;;;1.60;1.50;;;31.30;27.50;;;;;;20836;6716;117349;-85
2022/07/30 13:08:57;;;;;;;3.33;2.97;;;31.10;27.50;;;;;;21003;6703;118274;-86
2022/07/30 13:11:35;;;;;;;1.67;1.57;;;31.10;27.60;;;;;;20944;6718;118439;-85
2022/07/30 13:14:12;;;;;;;1.50;1.40;;;31.10;27.60;;;;;;20726;6716;279852;-86
2022/07/30 13:16:47;;;;;;;1.70;1.60;;;31.40;27.10;;;;;;20554;6716;277603;-85
2022/07/30 13:19:22;;;;;;;1.70;1.37;;;31.70;26.20;;;;;;20686;6730;309532;-87
2022/07/30 13:21:58;;;;;;;2.07;1.80;;;31.90;26.80;;;;;;20863;6733;118104;-86
2022/07/30 13:24:34;;;;;;;1.50;1.40;;;31.80;26.70;;;;;;20897;6733;116765;-89
2022/07/30 13:27:10;;;;;;;2.90;1.83;;;31.60;27.10;;;;;;20500;6733;312340;-85
2022/07/30 13:29:46;;;;;;;1.80;1.70;;;31.70;26.80;;;;;;20674;6737;307593;-85
2022/07/30 13:32:21;;;;;;;1.90;1.80;;;31.60;26.80;;;;;;20948;6714;116828;-84